createdAt,value
2016-09-16T00:00:52.252Z,73.49
2016-09-16T00:01:52.128Z,73.3
2016-09-16T00:02:54.332Z,73.77
2016-09-16T00:03:52.998Z,73.45
2016-09-16T00:04:52.754Z,73.83
2016-09-16T00:05:53.184Z,73.35
2016-09-16T00:06:53.368Z,73.35
2016-09-16T00:07:53.633Z,73.74
2016-09-16T00:08:53.423Z,73.07
2016-09-16T00:09:52.302Z,72.68
2016-09-16T00:10:53.301Z,72.11
2016-09-16T00:11:53.568Z,73.07
2016-09-16T00:12:53.357Z,73.83
2016-09-16T00:13:53.203Z,73.83
2016-09-16T00:14:53.162Z,73.55
2016-09-16T00:15:52.362Z,73.07
2016-09-16T00:16:53.199Z,72.59
2016-09-16T00:17:53.029Z,71.66
2016-09-16T00:18:52.540Z,71.09
2016-09-16T00:19:52.641Z,71.66
2016-09-16T00:20:52.895Z,71.86
2016-09-16T00:21:52.766Z,73.93
2016-09-16T00:22:53.162Z,73.74
2016-09-16T00:23:53.361Z,73.61
2016-09-16T00:24:53.037Z,73.61
2016-09-16T00:25:54.047Z,73.35
2016-09-16T00:26:52.989Z,73.55
2016-09-16T00:27:53.586Z,72.88
2016-09-16T00:28:53.102Z,72.88
2016-09-16T00:29:54.099Z,73.65
2016-09-16T00:30:53.124Z,73.65
2016-09-16T00:31:54.262Z,73.74
2016-09-16T00:32:52.949Z,73.74
2016-09-16T00:33:54.707Z,73.93
2016-09-16T00:34:53.193Z,73.65
2016-09-16T00:35:53.687Z,73.83
2016-09-16T00:36:53.406Z,73.35
2016-09-16T00:37:54.772Z,72.97
2016-09-16T00:38:52.822Z,73.07
2016-09-16T00:39:53.591Z,72.88
2016-09-16T00:40:53.608Z,72.39
2016-09-16T00:41:54.255Z,72.39
2016-09-16T00:42:54.063Z,72.59
2016-09-16T00:43:53.931Z,73.45
2016-09-16T00:44:53.545Z,73.65
2016-09-16T00:45:53.432Z,73.74
2016-09-16T00:46:53.572Z,73.45
2016-09-16T00:47:54.105Z,74.51
2016-09-16T00:48:54.181Z,73.83
2016-09-16T00:49:55.413Z,74.02
2016-09-16T00:50:53.855Z,74.22
2016-09-16T00:51:53.693Z,73.61
2016-09-16T00:52:53.739Z,74.22
2016-09-16T00:53:54.138Z,74.95
2016-09-16T00:54:54.036Z,73.51
2016-09-16T00:55:54.022Z,74.02
2016-09-16T00:56:54.823Z,73.74
2016-09-16T00:57:54.176Z,74.12
2016-09-16T00:58:53.756Z,74.12
2016-09-16T00:59:54.189Z,74.12
2016-09-16T01:00:54.815Z,74.12
2016-09-16T01:01:54.370Z,73.74
2016-09-16T01:02:54.353Z,73.74
2016-09-16T01:03:55.034Z,73.65
2016-09-16T01:04:54.734Z,73.35
2016-09-16T01:05:54.485Z,74.12
2016-09-16T01:06:54.653Z,73.45
2016-09-16T01:07:54.506Z,73.45
2016-09-16T01:08:53.952Z,73.74
2016-09-16T01:09:55.446Z,74.02
2016-09-16T01:10:54.261Z,75.14
2016-09-16T01:11:56.172Z,75.23
2016-09-16T01:12:54.451Z,75.43
2016-09-16T01:13:55.077Z,76.67
2016-09-16T01:14:54.879Z,76.67
2016-09-16T01:15:54.808Z,76.48
2016-09-16T01:16:54.158Z,76.48
2016-09-16T01:17:55.172Z,76.14
2016-09-16T01:18:54.631Z,75.37
2016-09-16T01:19:55.404Z,76.23
2016-09-16T01:20:54.309Z,75.33
2016-09-16T01:21:55.027Z,74.12
2016-09-16T01:22:54.985Z,74.12
2016-09-16T01:23:55.029Z,74.22
2016-09-16T01:24:54.690Z,73.83
2016-09-16T01:25:55.072Z,74.41
2016-09-16T01:26:55.073Z,73.74
2016-09-16T01:27:54.545Z,73.68
2016-09-16T01:28:55.109Z,74.16
2016-09-16T01:29:55.149Z,73.2
2016-09-16T01:30:55.566Z,73.39
2016-09-16T01:31:54.941Z,74.35
2016-09-16T01:32:55.492Z,76.52
2016-09-16T01:33:54.120Z,77.63
2016-09-16T01:34:55.044Z,78.11
2016-09-16T01:35:54.395Z,76.96
2016-09-16T01:36:54.022Z,76.04
2016-09-16T01:37:54.828Z,75.85
2016-09-16T01:38:55.438Z,75.62
2016-09-16T01:39:54.795Z,76
2016-09-16T01:40:55.339Z,76.04
2016-09-16T01:41:55.765Z,75.43
2016-09-16T01:42:55.150Z,76.32
2016-09-16T01:43:55.039Z,75.56
2016-09-16T01:44:54.536Z,75.56
2016-09-16T01:45:55.313Z,75.18
2016-09-16T01:46:54.590Z,76.23
2016-09-16T01:47:54.922Z,75.18
2016-09-16T01:48:55.633Z,76.32
2016-09-16T01:49:54.394Z,76.14
2016-09-16T01:50:54.368Z,75.85
2016-09-16T01:51:56.783Z,75.65
2016-09-16T01:52:54.566Z,75.37
2016-09-16T01:53:55.684Z,76.81
2016-09-16T01:54:55.060Z,75.08
2016-09-16T01:55:54.825Z,74.89
2016-09-16T01:56:55.835Z,74.98
2016-09-16T01:57:55.534Z,73.58
2016-09-16T01:58:55.551Z,74.31
2016-09-16T01:59:56.215Z,73.55
2016-09-16T02:00:55.123Z,74.41
2016-09-16T02:01:54.757Z,75.46
2016-09-16T02:02:54.894Z,75.08
2016-09-16T02:03:55.477Z,75.37
2016-09-16T02:04:54.934Z,76.04
2016-09-16T02:05:55.069Z,75.89
2016-09-16T02:06:55.908Z,76.17
2016-09-16T02:07:55.412Z,76.75
2016-09-16T02:08:55.430Z,76.84
2016-09-16T02:09:55.442Z,76.75
2016-09-16T02:10:55.198Z,76.75
2016-09-16T02:11:55.499Z,77.29
2016-09-16T02:12:55.426Z,77.58
2016-09-16T02:13:55.656Z,77.38
2016-09-16T02:14:55.609Z,77.04
2016-09-16T02:15:55.554Z,77.19
2016-09-16T02:16:57.550Z,77.09
2016-09-16T02:17:57.235Z,77.19
2016-09-16T02:18:55.758Z,77.09
2016-09-16T02:19:56.857Z,77.38
2016-09-16T02:20:55.854Z,78.25
2016-09-16T02:21:56.787Z,78.44
2016-09-16T02:22:55.167Z,79.11
2016-09-16T02:23:55.742Z,79.39
2016-09-16T02:24:55.843Z,79.49
2016-09-16T02:25:55.903Z,79.59
2016-09-16T02:26:55.415Z,78.44
2016-09-16T02:27:55.717Z,79.49
2016-09-16T02:28:55.925Z,80.07
2016-09-16T02:29:55.475Z,80.26
2016-09-16T02:30:56.819Z,80.89
2016-09-16T02:31:55.669Z,80.93
2016-09-16T02:32:55.886Z,80.93
2016-09-16T02:33:55.356Z,80.26
2016-09-16T02:34:57.070Z,81.02
2016-09-16T02:35:56.278Z,80.55
2016-09-16T02:36:56.124Z,81.22
2016-09-16T02:37:56.695Z,81.22
2016-09-16T02:38:56.170Z,82.27
2016-09-16T02:39:55.666Z,82.27
2016-09-16T02:40:56.735Z,81.51
2016-09-16T02:41:56.531Z,81.74
2016-09-16T02:42:56.461Z,81.93
2016-09-16T02:43:57.023Z,82.41
2016-09-16T02:44:56.568Z,84.33
2016-09-16T02:45:56.275Z,84.77
2016-09-16T02:46:56.986Z,83.61
2016-09-16T02:47:57.055Z,83.14
2016-09-16T02:48:56.303Z,83.81
2016-09-16T02:49:56.987Z,84.04
2016-09-16T02:50:56.450Z,83.94
2016-09-16T02:51:57.088Z,83.37
2016-09-16T02:52:55.670Z,84.04
2016-09-16T02:53:55.958Z,84.91
2016-09-16T02:54:58.105Z,84.52
2016-09-16T02:55:57.384Z,86.82
2016-09-16T02:56:56.999Z,86.63
2016-09-16T02:57:57.669Z,86.68
2016-09-16T02:58:57.144Z,86.97
2016-09-16T02:59:57.114Z,85.25
2016-09-16T03:00:57.821Z,84.67
2016-09-16T03:01:57.388Z,85.82
2016-09-16T03:02:56.830Z,86.21
2016-09-16T03:03:57.094Z,88.12
2016-09-16T03:04:56.272Z,88.07
2016-09-16T03:05:57.274Z,87.68
2016-09-16T03:06:57.198Z,87.59
2016-09-16T03:07:56.435Z,87.98
2016-09-16T03:08:56.999Z,90.08
2016-09-16T03:09:56.950Z,90.14
2016-09-16T03:10:57.271Z,91
2016-09-16T03:11:56.940Z,90.33
2016-09-16T03:12:56.649Z,90.33
2016-09-16T03:13:57.774Z,90.61
2016-09-16T03:14:56.307Z,89.94
2016-09-16T03:15:57.031Z,91
2016-09-16T03:16:57.819Z,91.48
2016-09-16T03:17:56.744Z,91.72
2016-09-16T03:18:57.232Z,91.77
2016-09-16T03:19:57.060Z,91.57
2016-09-16T03:20:57.643Z,91.67
2016-09-16T03:21:56.488Z,91.86
2016-09-16T03:22:57.754Z,91.86
2016-09-16T03:23:56.787Z,91.86
2016-09-16T03:24:56.877Z,91.09
2016-09-16T03:25:56.678Z,90.75
2016-09-16T03:26:57.516Z,90.66
2016-09-16T03:27:58.030Z,90.81
2016-09-16T03:28:57.215Z,91.09
2016-09-16T03:29:57.639Z,91.33
2016-09-16T03:30:56.998Z,91.81
2016-09-16T03:31:56.955Z,92.1
2016-09-16T03:32:57.372Z,92.24
2016-09-16T03:33:57.656Z,92.44
2016-09-16T03:34:58.202Z,93.78
2016-09-16T03:35:58.523Z,94.35
2016-09-16T03:36:57.605Z,94.26
2016-09-16T03:37:56.873Z,93.54
2016-09-16T03:38:57.158Z,93.06
2016-09-16T03:39:57.709Z,92.82
2016-09-16T03:40:57.534Z,92.24
2016-09-16T03:41:58.025Z,92.63
2016-09-16T03:42:57.224Z,94.07
2016-09-16T03:43:57.523Z,93.4
2016-09-16T03:44:57.603Z,93.44
2016-09-16T03:45:58.491Z,93.63
2016-09-16T03:46:59.806Z,93.68
2016-09-16T03:47:57.835Z,93.49
2016-09-16T03:48:57.227Z,93.49
2016-09-16T03:49:56.948Z,93.21
2016-09-16T03:50:56.986Z,92.63
2016-09-16T03:51:58.240Z,91.96
2016-09-16T03:52:58.539Z,92.44
2016-09-16T03:53:58.404Z,92.05
2016-09-16T03:54:57.435Z,93.11
2016-09-16T03:55:57.737Z,93.3
2016-09-16T03:56:57.691Z,93.4
2016-09-16T03:57:58.095Z,93.11
2016-09-16T03:58:57.818Z,93.4
2016-09-16T03:59:58.084Z,93.01
2016-09-16T04:00:57.699Z,93.01
2016-09-16T04:01:58.285Z,92.91
2016-09-16T04:02:58.157Z,92.68
2016-09-16T04:03:57.947Z,92
2016-09-16T04:04:58.035Z,92
2016-09-16T04:06:00.042Z,92.29
2016-09-16T04:06:58.720Z,92.39
2016-09-16T04:07:58.284Z,92.1
2016-09-16T04:08:57.444Z,91.77
2016-09-16T04:09:58.607Z,91.28
2016-09-16T04:10:57.948Z,91.86
2016-09-16T04:11:58.844Z,92.24
2016-09-16T04:12:58.898Z,90.66
2016-09-16T04:13:57.357Z,92.24
2016-09-16T04:14:58.936Z,93.3
2016-09-16T04:15:58.128Z,93.68
2016-09-16T04:16:59.341Z,93.68
2016-09-16T04:17:57.777Z,93.49
2016-09-16T04:18:57.496Z,92.44
2016-09-16T04:19:57.720Z,92.34
2016-09-16T04:20:58.551Z,93.68
2016-09-16T04:22:00.029Z,93.49
2016-09-16T04:22:59.477Z,93.68
2016-09-16T04:23:58.668Z,94.69
2016-09-16T04:24:59.030Z,94.89
2016-09-16T04:25:58.552Z,95.46
2016-09-16T04:26:59.193Z,95.46
2016-09-16T04:27:57.884Z,95.84
2016-09-16T04:28:59.435Z,96.32
2016-09-16T04:29:59.244Z,96.51
2016-09-16T04:30:58.876Z,96.51
2016-09-16T04:31:57.717Z,95.56
2016-09-16T04:32:59.374Z,94.69
2016-09-16T04:33:58.088Z,94.12
2016-09-16T04:35:00.191Z,93.83
2016-09-16T04:35:59.199Z,94.59
2016-09-16T04:36:58.386Z,94.89
2016-09-16T04:37:59.061Z,95.56
2016-09-16T04:38:58.744Z,95.17
2016-09-16T04:39:58.310Z,95.56
2016-09-16T04:40:59.483Z,95.65
2016-09-16T04:41:58.295Z,95.36
2016-09-16T04:42:58.291Z,94.79
2016-09-16T04:43:58.769Z,94.69
2016-09-16T04:44:59.704Z,94.89
2016-09-16T04:45:59.352Z,94.21
2016-09-16T04:46:59.308Z,93.83
2016-09-16T04:47:58.816Z,93.83
2016-09-16T04:48:58.996Z,93.44
2016-09-16T04:49:59.600Z,94.12
2016-09-16T04:50:59.588Z,94.89
2016-09-16T04:52:00.207Z,94.98
2016-09-16T04:52:58.687Z,95.07
2016-09-16T04:53:58.886Z,94.98
2016-09-16T04:55:00.715Z,94.79
2016-09-16T04:56:00.040Z,95.07
2016-09-16T04:57:00.161Z,95.75
2016-09-16T04:57:59.456Z,94.69
2016-09-16T04:58:59.545Z,94.02
2016-09-16T05:00:00.503Z,93.63
2016-09-16T05:01:01.236Z,94.12
2016-09-16T05:01:58.479Z,94.21
2016-09-16T05:02:59.161Z,94.02
2016-09-16T05:04:00.258Z,94.35
2016-09-16T05:05:00.809Z,94.54
2016-09-16T05:05:59.521Z,94.26
2016-09-16T05:06:59.395Z,94.07
2016-09-16T05:07:59.852Z,94.07
2016-09-16T05:09:00.081Z,94.54
2016-09-16T05:09:59.913Z,94.17
2016-09-16T05:11:01.313Z,94.26
2016-09-16T05:12:00.669Z,93.68
2016-09-16T05:13:00.050Z,93.21
2016-09-16T05:14:00.659Z,93.11
2016-09-16T05:14:59.213Z,92.24
2016-09-16T05:15:59.715Z,92.34
2016-09-16T05:16:59.688Z,93.21
2016-09-16T05:17:59.610Z,93.21
2016-09-16T05:18:59.520Z,92.54
2016-09-16T05:19:59.668Z,92.54
2016-09-16T05:20:59.818Z,92.24
2016-09-16T05:22:00.912Z,93.78
2016-09-16T05:23:00.448Z,93.68
2016-09-16T05:23:59.374Z,93.11
2016-09-16T05:25:00.776Z,93.97
2016-09-16T05:25:59.857Z,94.64
2016-09-16T05:26:59.901Z,94.26
2016-09-16T05:27:59.748Z,93.68
2016-09-16T05:29:00.547Z,94.5
2016-09-16T05:30:01.016Z,95.84
2016-09-16T05:31:00.344Z,94.89
2016-09-16T05:31:59.169Z,94.89
2016-09-16T05:32:59.548Z,95.41
2016-09-16T05:34:00.666Z,93.83
2016-09-16T05:34:59.751Z,94.74
2016-09-16T05:35:59.889Z,93.88
2016-09-16T05:37:00.329Z,94.74
2016-09-16T05:38:00.299Z,94.45
2016-09-16T05:39:02.327Z,95.41
2016-09-16T05:39:59.699Z,95.31
2016-09-16T05:41:00.146Z,94.93
2016-09-16T05:41:59.949Z,95.36
2016-09-16T05:42:59.685Z,94.69
2016-09-16T05:43:59.770Z,93.88
2016-09-16T05:44:59.732Z,93.73
2016-09-16T05:46:01.153Z,94.84
2016-09-16T05:47:01.826Z,94.35
2016-09-16T05:48:01.908Z,93.49
2016-09-16T05:49:00.492Z,94.54
2016-09-16T05:50:01.691Z,95.03
2016-09-16T05:51:02.316Z,93.68
2016-09-16T05:52:01.382Z,93.68
2016-09-16T05:53:01.700Z,93.63
2016-09-16T05:54:01.522Z,93.92
2016-09-16T05:55:02.134Z,94.35
2016-09-16T05:56:00.833Z,94.79
2016-09-16T05:57:00.842Z,94.59
2016-09-16T05:58:01.836Z,94.79
2016-09-16T05:59:02.396Z,95.41
2016-09-16T06:00:00.499Z,96.18
2016-09-16T06:01:00.822Z,96.66
2016-09-16T06:02:00.922Z,96.56
2016-09-16T06:03:00.092Z,96.66
2016-09-16T06:04:00.524Z,96.27
2016-09-16T06:05:00.520Z,95.7
2016-09-16T06:06:01.543Z,96.56
2016-09-16T06:07:01.388Z,96.56
2016-09-16T06:08:02.941Z,95.79
2016-09-16T06:09:02.430Z,95.65
2016-09-16T06:10:00.674Z,95.41
2016-09-16T06:11:00.254Z,95.17
2016-09-16T06:12:00.200Z,95.65
2016-09-16T06:13:01.545Z,95.84
2016-09-16T06:14:00.598Z,95.6
2016-09-16T06:15:01.882Z,95.65
2016-09-16T06:16:00.209Z,95.84
2016-09-16T06:17:00.466Z,95.65
2016-09-16T06:18:00.601Z,94.98
2016-09-16T06:19:01.341Z,94.59
2016-09-16T06:20:01.221Z,93.44
2016-09-16T06:21:00.275Z,94.02
2016-09-16T06:22:01.204Z,94.31
2016-09-16T06:23:00.851Z,93.54
2016-09-16T06:24:01.298Z,92.48
2016-09-16T06:25:00.749Z,91.91
2016-09-16T06:26:01.020Z,92.1
2016-09-16T06:26:59.651Z,90.85
2016-09-16T06:28:00.000Z,91.19
2016-09-16T06:29:01.104Z,92.43
2016-09-16T06:30:01.263Z,93.59
2016-09-16T06:31:01.097Z,92.63
2016-09-16T06:32:00.817Z,90.9
2016-09-16T06:33:00.845Z,91.76
2016-09-16T06:34:00.686Z,91.09
2016-09-16T06:35:00.830Z,90.32
2016-09-16T06:36:00.185Z,91.09
2016-09-16T06:37:00.444Z,88.98
2016-09-16T06:38:00.600Z,87.63
2016-09-16T06:39:00.669Z,87.92
2016-09-16T06:40:00.913Z,87.63
2016-09-16T06:41:00.738Z,87.54
2016-09-16T06:42:01.115Z,87.05
2016-09-16T06:43:00.885Z,85.47
2016-09-16T06:44:01.132Z,85.47
2016-09-16T06:45:00.724Z,87.1
2016-09-16T06:46:00.650Z,87.49
2016-09-16T06:47:00.886Z,86.91
2016-09-16T06:48:00.646Z,86.62
2016-09-16T06:49:01.468Z,85.89
2016-09-16T06:50:01.588Z,84.64
2016-09-16T06:51:00.515Z,84.74
2016-09-16T06:52:00.748Z,85.99
2016-09-16T06:53:00.861Z,86.52
2016-09-16T06:54:00.689Z,87.58
2016-09-16T06:55:00.842Z,85.85
2016-09-16T06:56:00.855Z,84.99
2016-09-16T06:57:01.206Z,84.89
2016-09-16T06:58:01.238Z,83.11
2016-09-16T06:59:01.258Z,81.99
2016-09-16T07:00:01.501Z,82.09
2016-09-16T07:01:01.410Z,83.63
2016-09-16T07:02:00.787Z,81.19
2016-09-16T07:03:00.975Z,81.96
2016-09-16T07:04:01.988Z,80.42
2016-09-16T07:05:02.994Z,79.46
2016-09-16T07:06:02.163Z,78.88
2016-09-16T07:07:01.397Z,78.69
2016-09-16T07:08:02.242Z,79.07
2016-09-16T07:09:01.239Z,79.55
2016-09-16T07:10:01.711Z,79.46
2016-09-16T07:11:01.497Z,78.59
2016-09-16T07:12:02.450Z,80.04
2016-09-16T07:13:02.227Z,78.63
2016-09-16T07:14:01.686Z,78.78
2016-09-16T07:15:03.016Z,78.88
2016-09-16T07:16:01.958Z,78.3
2016-09-16T07:17:03.235Z,78.21
2016-09-16T07:18:03.759Z,76.29
2016-09-16T07:19:01.629Z,76.86
2016-09-16T07:20:01.502Z,76.77
2016-09-16T07:21:01.669Z,77.25
2016-09-16T07:22:01.990Z,77.76
2016-09-16T07:23:02.603Z,77.86
2016-09-16T07:24:02.067Z,77.76
2016-09-16T07:25:02.167Z,77
2016-09-16T07:26:01.331Z,77.48
2016-09-16T07:27:01.852Z,77.86
2016-09-16T07:28:01.833Z,77.86
2016-09-16T07:29:01.482Z,77.67
2016-09-16T07:30:03.028Z,77.09
2016-09-16T07:31:01.948Z,78.15
2016-09-16T07:32:01.654Z,78.53
2016-09-16T07:33:02.241Z,78.98
2016-09-16T07:34:02.207Z,77.92
2016-09-16T07:35:02.380Z,77.34
2016-09-16T07:36:02.314Z,77.15
2016-09-16T07:37:02.606Z,76.96
2016-09-16T07:38:02.001Z,77.09
2016-09-16T07:39:01.968Z,75.84
2016-09-16T07:40:02.031Z,75.23
2016-09-16T07:41:02.869Z,75.84
2016-09-16T07:42:03.184Z,76.52
2016-09-16T07:43:02.029Z,76.61
2016-09-16T07:44:02.751Z,75.75
2016-09-16T07:45:01.932Z,73.92
2016-09-16T07:46:02.464Z,73.57
2016-09-16T07:47:02.515Z,73
2016-09-16T07:48:02.928Z,71.36
2016-09-16T07:49:03.317Z,71.55
2016-09-16T07:50:03.321Z,72.03
2016-09-16T07:51:03.495Z,71.36
2016-09-16T07:52:03.523Z,71.94
2016-09-16T07:53:03.535Z,72.9
2016-09-16T07:54:02.260Z,71.84
2016-09-16T07:55:02.812Z,71.84
2016-09-16T07:56:02.460Z,73.28
2016-09-16T07:57:03.053Z,74.34
2016-09-16T07:58:02.943Z,73.57
2016-09-16T07:59:02.692Z,73
2016-09-16T08:00:04.389Z,72.52
2016-09-16T08:01:02.505Z,71.26
2016-09-16T08:02:04.345Z,71.08
2016-09-16T08:03:02.500Z,71.08
2016-09-16T08:04:03.969Z,71.17
2016-09-16T08:05:05.038Z,70.98
2016-09-16T08:06:02.767Z,70.88
2016-09-16T08:07:03.151Z,70.98
2016-09-16T08:08:03.425Z,70.68
2016-09-16T08:09:03.465Z,70.59
2016-09-16T08:10:03.584Z,71.08
2016-09-16T08:11:04.291Z,71.08
2016-09-16T08:12:04.293Z,70.98
2016-09-16T08:13:03.845Z,71.17
2016-09-16T08:14:03.175Z,70.21
2016-09-16T08:15:04.253Z,70.59
2016-09-16T08:16:04.238Z,71.08
2016-09-16T08:17:02.839Z,70.88
2016-09-16T08:18:02.820Z,70.88
2016-09-16T08:19:03.119Z,70.98
2016-09-16T08:20:03.163Z,70.5
2016-09-16T08:21:03.535Z,70.88
2016-09-16T08:22:03.784Z,70.98
2016-09-16T08:23:03.647Z,71.36
2016-09-16T08:24:02.960Z,71.01
2016-09-16T08:25:03.126Z,70.68
2016-09-16T08:26:03.138Z,70.01
2016-09-16T08:27:03.324Z,69.76
2016-09-16T08:28:03.133Z,70.59
2016-09-16T08:29:03.945Z,70.05
2016-09-16T08:30:04.093Z,70.05
2016-09-16T08:31:03.006Z,69.02
2016-09-16T08:32:03.652Z,69.12
2016-09-16T08:33:04.162Z,69.41
2016-09-16T08:34:03.958Z,69.09
2016-09-16T08:35:03.980Z,69.76
2016-09-16T08:36:03.395Z,69.85
2016-09-16T08:37:03.420Z,69.67
2016-09-16T08:38:03.853Z,69.95
2016-09-16T08:39:03.301Z,69.57
2016-09-16T08:40:04.395Z,70.15
2016-09-16T08:41:03.573Z,70.11
2016-09-16T08:42:04.091Z,69.53
2016-09-16T08:43:02.928Z,69.82
2016-09-16T08:44:04.836Z,69.76
2016-09-16T08:45:04.508Z,70.62
2016-09-16T08:46:04.086Z,69.67
2016-09-16T08:47:04.203Z,68.51
2016-09-16T08:48:04.027Z,69.18
2016-09-16T08:49:04.663Z,69.95
2016-09-16T08:50:05.090Z,69.82
2016-09-16T08:51:03.513Z,69.38
2016-09-16T08:52:04.127Z,69.57
2016-09-16T08:53:04.149Z,69.47
2016-09-16T08:54:05.067Z,70.05
2016-09-16T08:55:04.843Z,69.57
2016-09-16T08:56:03.639Z,70.05
2016-09-16T08:57:04.349Z,70.24
2016-09-16T08:58:04.972Z,69.95
2016-09-16T08:59:04.371Z,69.38
2016-09-16T09:00:04.386Z,69.85
2016-09-16T09:01:03.439Z,70.43
2016-09-16T09:02:03.918Z,70.43
2016-09-16T09:03:04.356Z,70.05
2016-09-16T09:04:04.339Z,69.28
2016-09-16T09:05:04.240Z,69.09
2016-09-16T09:06:04.294Z,68.9
2016-09-16T09:07:03.877Z,68.9
2016-09-16T09:08:05.023Z,69.09
2016-09-16T09:09:04.565Z,68.35
2016-09-16T09:10:04.899Z,68.06
2016-09-16T09:11:04.623Z,67.39
2016-09-16T09:12:04.015Z,67.71
2016-09-16T09:13:04.060Z,67.52
2016-09-16T09:14:05.438Z,67.97
2016-09-16T09:15:04.234Z,67.58
2016-09-16T09:16:04.213Z,67.77
2016-09-16T09:17:04.936Z,67.29
2016-09-16T09:18:05.304Z,68.26
2016-09-16T09:19:05.224Z,68.84
2016-09-16T09:20:04.133Z,69.12
2016-09-16T09:21:04.450Z,68.26
2016-09-16T09:22:04.486Z,67.39
2016-09-16T09:23:05.182Z,67.68
2016-09-16T09:24:04.489Z,66.71
2016-09-16T09:25:05.334Z,66.36
2016-09-16T09:26:05.071Z,66.69
2016-09-16T09:27:05.142Z,66.85
2016-09-16T09:28:05.956Z,67.39
2016-09-16T09:29:05.325Z,67.13
2016-09-16T09:30:05.773Z,66.46
2016-09-16T09:31:05.204Z,66.46
2016-09-16T09:32:05.767Z,67.13
2016-09-16T09:33:05.700Z,66.55
2016-09-16T09:34:05.619Z,65.81
2016-09-16T09:35:05.599Z,67.2
2016-09-16T09:36:04.940Z,67.26
2016-09-16T09:37:05.374Z,66.36
2016-09-16T09:38:06.293Z,66.49
2016-09-16T09:39:06.557Z,67.71
2016-09-16T09:40:05.373Z,67.39
2016-09-16T09:41:06.833Z,67.61
2016-09-16T09:42:06.378Z,67.52
2016-09-16T09:43:05.569Z,67.61
2016-09-16T09:44:05.397Z,67.23
2016-09-16T09:45:04.898Z,66.46
2016-09-16T09:46:04.764Z,66.46
2016-09-16T09:47:05.404Z,67.46
2016-09-16T09:48:05.400Z,66.59
2016-09-16T09:49:06.189Z,66.11
2016-09-16T09:50:05.181Z,65.43
2016-09-16T09:51:05.164Z,66.52
2016-09-16T09:52:05.443Z,67.71
2016-09-16T09:53:06.518Z,67.61
2016-09-16T09:54:05.852Z,67.52
2016-09-16T09:55:05.053Z,67.23
2016-09-16T09:56:05.747Z,68.44
2016-09-16T09:57:05.818Z,67.33
2016-09-16T09:58:05.476Z,67.81
2016-09-16T09:59:07.171Z,67.52
2016-09-16T10:00:05.849Z,67.55
2016-09-16T10:01:05.707Z,66.72
2016-09-16T10:02:05.543Z,65.98
2016-09-16T10:03:06.895Z,66.14
2016-09-16T10:04:05.566Z,66.33
2016-09-16T10:05:06.192Z,66.46
2016-09-16T10:06:05.491Z,65.88
2016-09-16T10:07:06.264Z,63.73
2016-09-16T10:08:06.276Z,64.92
2016-09-16T10:09:05.633Z,62.05
2016-09-16T10:10:07.050Z,59.53
2016-09-16T10:11:05.438Z,59.28
2016-09-16T10:12:06.800Z,59.6
2016-09-16T10:13:07.719Z,59.25
2016-09-16T10:14:06.215Z,60.47
2016-09-16T10:15:05.463Z,62.05
2016-09-16T10:16:06.897Z,58.06
2016-09-16T10:17:06.343Z,57.08
2016-09-16T10:18:07.273Z,55.17
2016-09-16T10:19:07.437Z,55.32
2016-09-16T10:20:05.680Z,54.11
2016-09-16T10:21:06.933Z,56.34
2016-09-16T10:22:06.203Z,55.15
2016-09-16T10:23:06.845Z,55.88
2016-09-16T10:24:05.825Z,57.88
2016-09-16T10:25:05.694Z,58.28
2016-09-16T10:26:06.660Z,57.89
2016-09-16T10:27:07.641Z,57.99
2016-09-16T10:28:06.448Z,59.38
2016-09-16T10:29:07.565Z,57.54
2016-09-16T10:30:06.852Z,56.35
2016-09-16T10:31:05.939Z,57.92
2016-09-16T10:32:06.232Z,56.15
2016-09-16T10:33:06.598Z,57.66
2016-09-16T10:34:07.000Z,56.83
2016-09-16T10:35:06.734Z,57.08
2016-09-16T10:36:06.357Z,58.63
2016-09-16T10:37:06.275Z,58.18
2016-09-16T10:38:06.492Z,60.44
2016-09-16T10:39:06.479Z,57.99
2016-09-16T10:40:06.801Z,56.18
2016-09-16T10:41:07.104Z,57.2
2016-09-16T10:42:06.433Z,56.79
2016-09-16T10:43:06.505Z,56.3
2016-09-16T10:44:08.148Z,56.21
2016-09-16T10:45:06.775Z,54.71
2016-09-16T10:46:07.345Z,53.91
2016-09-16T10:47:07.325Z,54.39
2016-09-16T10:48:07.504Z,53.45
2016-09-16T10:49:06.690Z,53.23
2016-09-16T10:50:07.190Z,53.96
2016-09-16T10:51:07.749Z,55.99
2016-09-16T10:52:07.455Z,54.95
2016-09-16T10:53:06.813Z,54.47
2016-09-16T10:54:06.633Z,54.17
2016-09-16T10:55:06.598Z,55.17
2016-09-16T10:56:06.881Z,55.07
2016-09-16T10:57:06.531Z,55.89
2016-09-16T10:58:08.344Z,53.96
2016-09-16T10:59:08.372Z,53.11
2016-09-16T11:00:06.969Z,51.98
2016-09-16T11:01:07.212Z,51.88
2016-09-16T11:02:07.858Z,54.05
2016-09-16T11:03:07.062Z,54.05
2016-09-16T11:04:08.685Z,55.51
2016-09-16T11:05:07.749Z,56.09
2016-09-16T11:06:07.360Z,55.74
2016-09-16T11:07:08.222Z,56.41
2016-09-16T11:08:07.895Z,56.03
2016-09-16T11:09:08.126Z,55.26
2016-09-16T11:10:07.596Z,54.08
2016-09-16T11:11:07.547Z,53.5
2016-09-16T11:12:07.386Z,53.86
2016-09-16T11:13:07.903Z,52.14
2016-09-16T11:14:06.872Z,53.31
2016-09-16T11:15:07.723Z,50.94
2016-09-16T11:16:08.382Z,48.93
2016-09-16T11:17:07.693Z,49.15
2016-09-16T11:18:07.246Z,50.77
2016-09-16T11:19:07.575Z,50.33
2016-09-16T11:20:07.923Z,51.56
2016-09-16T11:21:07.474Z,51.54
2016-09-16T11:22:08.165Z,48.69
2016-09-16T11:23:08.055Z,49.39
2016-09-16T11:24:07.674Z,49.56
2016-09-16T11:25:07.849Z,50.14
2016-09-16T11:26:07.219Z,50.65
2016-09-16T11:27:07.969Z,49.68
2016-09-16T11:28:08.143Z,50.52
2016-09-16T11:29:08.317Z,51.56
2016-09-16T11:30:08.000Z,50.98
2016-09-16T11:31:07.390Z,49.49
2016-09-16T11:32:08.485Z,50.6
2016-09-16T11:33:08.274Z,49.63
2016-09-16T11:34:09.366Z,48.08
2016-09-16T11:35:07.504Z,45.24
2016-09-16T11:36:07.941Z,45.92
2016-09-16T11:37:07.845Z,46.16
2016-09-16T11:38:08.113Z,46.53
2016-09-16T11:39:08.517Z,47.35
2016-09-16T11:40:07.747Z,48.22
2016-09-16T11:41:08.008Z,47.98
2016-09-16T11:42:07.964Z,49.12
2016-09-16T11:43:08.624Z,48.44
2016-09-16T11:44:08.165Z,49.29
2016-09-16T11:45:08.782Z,50.82
2016-09-16T11:46:08.465Z,50.7
2016-09-16T11:47:08.903Z,52.85
2016-09-16T11:48:08.482Z,51.13
2016-09-16T11:49:07.885Z,48.35
2016-09-16T11:50:09.448Z,48.39
2016-09-16T11:51:08.821Z,48
2016-09-16T11:52:08.920Z,49.27
2016-09-16T11:53:09.103Z,48.49
2016-09-16T11:54:08.524Z,49.24
2016-09-16T11:55:08.172Z,49.39
2016-09-16T11:56:09.701Z,50.94
2016-09-16T11:57:09.063Z,50.16
2016-09-16T11:58:09.827Z,50.57
2016-09-16T11:59:10.149Z,51.06
2016-09-16T12:00:09.436Z,50.74
2016-09-16T12:01:09.580Z,50.79
2016-09-16T12:02:09.735Z,51.25
2016-09-16T12:03:08.543Z,51.83
2016-09-16T12:04:09.082Z,51.93
2016-09-16T12:05:09.138Z,51.44
2016-09-16T12:06:09.346Z,51.95
2016-09-16T12:07:08.759Z,52.73
2016-09-16T12:08:08.471Z,51.88
2016-09-16T12:09:09.471Z,50.52
2016-09-16T12:10:09.156Z,50.62
2016-09-16T12:11:09.613Z,52.31
2016-09-16T12:12:09.440Z,52
2016-09-16T12:13:09.329Z,51.51
2016-09-16T12:14:09.826Z,50.96
2016-09-16T12:15:08.900Z,51.73
2016-09-16T12:16:08.898Z,51.95
2016-09-16T12:17:10.174Z,53.5
2016-09-16T12:18:09.456Z,52.92
2016-09-16T12:19:08.835Z,56.4
2016-09-16T12:20:09.926Z,53.99
2016-09-16T12:21:09.338Z,52.46
2016-09-16T12:22:10.002Z,51.73
2016-09-16T12:23:09.769Z,53.28
2016-09-16T12:24:09.574Z,53.42
2016-09-16T12:25:09.423Z,55.29
2016-09-16T12:26:08.557Z,55.26
2016-09-16T12:27:09.525Z,53.93
2016-09-16T12:28:10.412Z,54.03
2016-09-16T12:29:09.732Z,54.97
2016-09-16T12:30:10.511Z,56.32
2016-09-16T12:31:10.016Z,56.1
2016-09-16T12:32:09.283Z,55.23
2016-09-16T12:33:09.603Z,54.46
2016-09-16T12:34:09.735Z,53.88
2016-09-16T12:35:08.901Z,55.65
2016-09-16T12:36:09.379Z,56.25
2016-09-16T12:37:09.272Z,55.09
2016-09-16T12:38:10.234Z,55.77
2016-09-16T12:39:11.265Z,56.76
2016-09-16T12:40:09.415Z,56.73
2016-09-16T12:41:09.804Z,57.41
2016-09-16T12:42:09.497Z,56.05
2016-09-16T12:43:10.073Z,55.38
2016-09-16T12:44:10.395Z,53.21
2016-09-16T12:45:10.038Z,52.63
2016-09-16T12:46:11.353Z,53.21
2016-09-16T12:47:11.536Z,53.11
2016-09-16T12:48:09.760Z,54.63
2016-09-16T12:49:10.271Z,55.05
2016-09-16T12:50:11.585Z,55.34
2016-09-16T12:51:10.127Z,53.09
2016-09-16T12:52:10.807Z,54.49
2016-09-16T12:53:10.064Z,52.58
2016-09-16T12:54:10.338Z,52.41
2016-09-16T12:55:10.992Z,51.08